Список аэропортов
Фактическая погода:

21 апреля, 19:30
Температура: +13°C (+12.7*)
Ветер: юго-западный 2 м/с
Давление: *770 мм
Без существ. явл.
Время (МСК)Темп. СВетерВлажностьДавлениеОблачностьОсадки
15:00+17В, 2 м/с21%1026 гПаясно
16:00+17СВ, 2 м/с21%1026 гПаясно
17:00+17СВ, 2 м/с22%1026 гПаясно
18:00+16СВ, 2 м/с24%1026 гПаясно
19:00+14СВ, 2 м/с27%1026 гПаясно
20:00+11СВ, 1 м/с39%1027 гПаясно
21:00+8В, 1 м/с49%1027 гПаясно
22:00+6ЮВ, 1 м/с55%1028 гПаясно
23:00+5Ю, 1 м/с61%1028 гПаясно
22 апреля
00:00+3Ю, 1 м/с65%1028 гПаясно
01:00+2ЮЗ, 1 м/с68%1029 гПаясно
02:00+2ЮЗ, 1 м/с69%1029 гПаясно
03:00+2Ю, 1 м/с68%1029 гПаясно
04:00+1ЮЗ, 1 м/с68%1029 гПаясно
05:00+1ЮЗ, 1 м/с72%1030 гПаясно
06:000З, 1 м/с76%1030 гПаясно
07:00+2ЮЗ, 1 м/с69%1030 гПаясно
08:00+7Штиль 58%1029 гПаясно
09:00+12З, 2 м/с37%1029 гПаясно
10:00+15З, 3 м/с28%1029 гПаясно
11:00+17СЗ, 3 м/с25%1029 гПаясно
12:00+17СЗ, 3 м/с24%1028 гПаясно
13:00+18СЗ, 3 м/с24%1028 гПаясно
14:00+18СЗ, 3 м/с24%1028 гПаясно
15:00+18СЗ, 3 м/с24%1028 гПаясно
16:00+18СЗ, 3 м/с23%1027 гПаясно
17:00+18СЗ, 3 м/с23%1027 гПаясно
18:00+17СЗ, 4 м/с24%1027 гПаясно
19:00+16СЗ, 3 м/с28%1027 гПаясно
20:00+13СЗ, 2 м/с37%1027 гПаясно
21:00+10З, 2 м/с46%1028 гПаясно
22:00+9З, 2 м/с52%1028 гПаясно
23:00+8ЮЗ, 2 м/с58%1028 гПас прояснениями
23 апреля
00:00+6ЮЗ, 2 м/с64%1028 гПамалооблачно
01:00+6З, 2 м/с71%1028 гПаоблачно
02:00+5ЮЗ, 2 м/с77%1029 гПаоблачно
03:00+4ЮЗ, 2 м/с83%1029 гПаоблачно
04:00+4ЮЗ, 2 м/с86%1028 гПаоблачно
05:00+4ЮЗ, 2 м/с85%1029 гПаоблачно
06:00+5ЮЗ, 2 м/с82%1029 гПаоблачно
07:00+7ЮЗ, 3 м/с70%1028 гПаоблачно
08:00+10З, 4 м/с56%1028 гПаоблачно
09:00+14З, 4 м/с45%1028 гПаоблачно
10:00+17З, 6 м/с35%1027 гПаоблачно
11:00+18З, 7 м/с31%1027 гПаоблачно
12:00+18З, 8 м/с30%1027 гПаоблачносл. дождь
13:00+18З, 8 м/с31%1027 гПаоблачносл. дождь
14:00+18З, 8 м/с32%1026 гПаоблачносл. дождь
15:00+18З, 8 м/с33%1026 гПаоблачно